createdAt,value
2023-01-26T00:02:10.974Z,41.67
2023-01-26T00:04:57.905Z,37.88
2023-01-26T00:07:29.415Z,43.28
2023-01-26T00:10:07.449Z,42.88
2023-01-26T00:12:48.043Z,40.90
2023-01-26T00:15:16.408Z,41.53
2023-01-26T00:17:51.485Z,42.72
2023-01-26T00:20:23.958Z,42.13
2023-01-26T00:23:11.353Z,42.67
2023-01-26T00:25:47.277Z,41.85
2023-01-26T00:28:22.159Z,38.90
2023-01-26T00:30:55.195Z,36.60
2023-01-26T00:33:39.480Z,40.10
2023-01-26T00:36:10.925Z,38.42
2023-01-26T00:38:42.316Z,38.05
2023-01-26T00:41:40.744Z,41.50
2023-01-26T00:44:12.045Z,40.05
2023-01-26T00:46:41.781Z,41.17
2023-01-26T00:49:10.235Z,41.80
2023-01-26T00:51:39.417Z,43.17
2023-01-26T00:54:11.392Z,41.75
2023-01-26T00:56:44.191Z,41.50
2023-01-26T00:59:14.583Z,42.90
2023-01-26T01:01:43.577Z,40.85
2023-01-26T01:04:12.247Z,40.05
2023-01-26T01:06:40.778Z,40.25
2023-01-26T01:09:13.855Z,40.17
2023-01-26T01:11:45.671Z,41.22
2023-01-26T01:14:16.589Z,38.45
2023-01-26T01:16:46.600Z,41.47
2023-01-26T01:19:18.543Z,40.25
2023-01-26T01:22:02.018Z,37.97
2023-01-26T01:24:37.520Z,52.83
2023-01-26T01:27:09.783Z,37.30
2023-01-26T01:29:40.917Z,42.88
2023-01-26T01:32:09.838Z,38.53
2023-01-26T01:34:38.069Z,40.42
2023-01-26T01:37:08.661Z,40.92
2023-01-26T01:39:37.181Z,39.90
2023-01-26T01:42:06.128Z,42.75
2023-01-26T01:44:38.285Z,43.40
2023-01-26T01:47:11.627Z,39.80
2023-01-26T01:49:47.360Z,44.53
2023-01-26T01:52:27.487Z,40.65
2023-01-26T01:55:08.508Z,39.60
2023-01-26T01:57:47.020Z,40.28
2023-01-26T02:00:19.705Z,35.65
2023-01-26T02:03:14.796Z,37.03
2023-01-26T02:05:58.966Z,35.45
2023-01-26T02:08:40.412Z,38.08
2023-01-26T02:11:23.107Z,31.50
2023-01-26T02:13:51.656Z,35.55
2023-01-26T02:16:20.639Z,36.33
2023-01-26T02:18:49.141Z,34.60
2023-01-26T02:21:23.284Z,36.70
2023-01-26T02:24:10.614Z,34.80
2023-01-26T02:26:41.451Z,34.17
2023-01-26T02:29:12.179Z,36.47
2023-01-26T02:31:44.511Z,34.45
2023-01-26T02:34:13.249Z,36.30
2023-01-26T02:36:57.651Z,35.00
2023-01-26T02:39:41.567Z,36.80
2023-01-26T02:42:29.885Z,37.78
2023-01-26T02:45:01.672Z,36.28
2023-01-26T02:47:40.386Z,37.42
2023-01-26T02:50:09.773Z,35.78
2023-01-26T02:52:40.961Z,35.63
2023-01-26T02:55:28.675Z,38.05
2023-01-26T02:58:01.016Z,38.17
2023-01-26T03:00:42.064Z,35.60
2023-01-26T03:03:42.472Z,36.63
2023-01-26T03:06:15.172Z,33.97
2023-01-26T03:08:49.158Z,34.63
2023-01-26T03:11:24.123Z,35.53
2023-01-26T03:13:52.456Z,32.97
2023-01-26T03:16:25.188Z,26.73
2023-01-26T03:19:18.781Z,35.15
2023-01-26T03:22:06.628Z,36.90
2023-01-26T03:24:55.994Z,35.28
2023-01-26T03:27:29.725Z,36.22
2023-01-26T03:30:09.314Z,36.30
2023-01-26T03:32:51.519Z,31.67
2023-01-26T03:35:22.701Z,35.47
2023-01-26T03:37:54.754Z,36.42
2023-01-26T03:41:07.451Z,37.15
2023-01-26T03:43:54.892Z,35.47
2023-01-26T03:46:44.616Z,33.75
2023-01-26T03:49:31.752Z,33.88
2023-01-26T03:52:20.525Z,35.67
2023-01-26T03:55:08.460Z,33.50
2023-01-26T03:57:38.381Z,35.00
2023-01-26T04:00:07.294Z,33.95
2023-01-26T04:03:17.674Z,27.02
2023-01-26T04:06:15.713Z,37.08
2023-01-26T04:08:52.567Z,37.33
2023-01-26T04:11:21.265Z,35.35
2023-01-26T04:14:10.395Z,35.80
2023-01-26T04:16:57.206Z,36.50
2023-01-26T04:19:45.888Z,35.20
2023-01-26T04:22:15.883Z,34.80
2023-01-26T04:24:48.299Z,37.53
2023-01-26T04:27:17.781Z,35.13
2023-01-26T04:29:46.521Z,33.65
2023-01-26T04:32:21.165Z,34.13
2023-01-26T04:34:58.053Z,35.13
2023-01-26T04:37:33.116Z,34.00
2023-01-26T04:40:04.288Z,34.25
2023-01-26T04:42:48.942Z,33.05
2023-01-26T04:45:18.746Z,34.35
2023-01-26T04:47:55.187Z,32.15
2023-01-26T04:50:29.302Z,33.28
2023-01-26T04:53:07.019Z,33.85
2023-01-26T04:55:41.495Z,35.88
2023-01-26T04:58:10.805Z,33.20
2023-01-26T05:00:40.932Z,30.55
2023-01-26T05:03:19.975Z,32.08
2023-01-26T05:05:50.935Z,32.03
2023-01-26T05:08:21.743Z,30.75
2023-01-26T05:10:53.466Z,34.03
2023-01-26T05:13:26.748Z,30.83
2023-01-26T05:16:15.565Z,31.98
2023-01-26T05:19:09.887Z,30.77
2023-01-26T05:21:53.535Z,30.67
2023-01-26T05:24:25.485Z,31.35
2023-01-26T05:27:21.050Z,30.85
2023-01-26T05:30:00.348Z,29.73
2023-01-26T05:32:31.618Z,30.08
2023-01-26T05:35:00.661Z,28.73
2023-01-26T05:37:35.903Z,33.28
2023-01-26T05:40:07.144Z,30.40
2023-01-26T05:42:39.049Z,33.13
2023-01-26T05:45:42.625Z,30.40
2023-01-26T05:48:17.807Z,29.27
2023-01-26T05:50:53.409Z,29.92
2023-01-26T05:53:23.043Z,29.27
2023-01-26T05:55:53.562Z,31.05
2023-01-26T05:58:26.284Z,21.13
2023-01-26T06:00:55.207Z,30.50
2023-01-26T06:03:39.700Z,28.42
2023-01-26T06:06:13.459Z,30.13
2023-01-26T06:08:52.223Z,27.35
2023-01-26T06:14:17.684Z,25.30
2023-01-26T06:16:47.761Z,27.13
2023-01-26T06:19:17.157Z,26.70
2023-01-26T06:21:51.131Z,28.77
2023-01-26T06:24:22.573Z,27.60
2023-01-26T06:26:51.228Z,27.02
2023-01-26T06:29:24.051Z,28.50
2023-01-26T06:31:57.079Z,26.70
2023-01-26T06:34:30.961Z,26.02
2023-01-26T06:37:00.585Z,25.67
2023-01-26T06:39:35.542Z,26.00
2023-01-26T06:42:08.386Z,23.90
2023-01-26T06:44:37.890Z,24.65
2023-01-26T06:47:07.732Z,27.63
2023-01-26T06:49:37.649Z,26.85
2023-01-26T06:52:20.069Z,26.80
2023-01-26T06:54:53.628Z,25.77
2023-01-26T06:57:27.122Z,26.35
2023-01-26T07:00:14.728Z,23.65
2023-01-26T07:03:17.116Z,25.90
2023-01-26T07:05:48.265Z,31.90
2023-01-26T07:08:17.321Z,39.88
2023-01-26T07:10:47.603Z,27.42
2023-01-26T07:13:16.174Z,26.10
2023-01-26T07:15:46.599Z,25.65
2023-01-26T07:18:17.248Z,25.63
2023-01-26T07:20:46.274Z,27.98
2023-01-26T07:23:15.556Z,24.48
2023-01-26T07:25:47.475Z,26.05
2023-01-26T07:28:16.208Z,26.00
2023-01-26T07:30:44.947Z,26.05
2023-01-26T07:33:24.654Z,25.27
2023-01-26T07:35:54.377Z,25.25
2023-01-26T07:38:23.422Z,24.60
2023-01-26T07:40:53.374Z,25.80
2023-01-26T07:43:21.886Z,25.70
2023-01-26T07:45:54.369Z,25.27
2023-01-26T07:48:29.816Z,26.48
2023-01-26T07:51:03.480Z,24.40
2023-01-26T07:53:39.577Z,24.23
2023-01-26T07:56:14.746Z,25.45
2023-01-26T07:58:44.016Z,26.95
2023-01-26T08:01:16.137Z,25.73
2023-01-26T08:03:53.636Z,27.05
2023-01-26T08:06:25.303Z,28.23
2023-01-26T08:08:55.002Z,25.67
2023-01-26T08:11:24.358Z,26.77
2023-01-26T08:13:57.196Z,29.02
2023-01-26T08:16:28.713Z,29.40
2023-01-26T08:18:59.979Z,28.67
2023-01-26T08:21:29.724Z,27.38
2023-01-26T08:24:03.426Z,24.88
2023-01-26T08:26:33.398Z,27.60
2023-01-26T08:29:01.711Z,34.25
2023-01-26T08:31:30.148Z,29.63
2023-01-26T08:34:02.157Z,27.70
2023-01-26T08:36:32.977Z,31.58
2023-01-26T08:39:02.785Z,28.70
2023-01-26T08:41:40.516Z,28.55
2023-01-26T08:44:10.497Z,28.27
2023-01-26T08:46:45.206Z,30.88
2023-01-26T08:49:24.589Z,27.33
2023-01-26T08:51:54.461Z,27.88
2023-01-26T08:54:23.415Z,30.50
2023-01-26T08:56:53.433Z,29.73
2023-01-26T08:59:24.456Z,30.73
2023-01-26T09:01:57.000Z,28.70
2023-01-26T09:04:34.190Z,32.20
2023-01-26T09:10:01.474Z,30.77
2023-01-26T09:12:33.052Z,30.63
2023-01-26T09:15:05.259Z,29.98
2023-01-26T09:17:38.597Z,28.83
2023-01-26T09:20:09.843Z,29.48
2023-01-26T09:22:46.120Z,30.42
2023-01-26T09:25:17.026Z,29.15
2023-01-26T09:27:53.734Z,28.40
2023-01-26T09:30:24.887Z,30.40
2023-01-26T09:33:12.569Z,41.03
2023-01-26T09:35:43.797Z,31.27
2023-01-26T09:38:12.145Z,29.35
2023-01-26T09:40:46.702Z,28.98
2023-01-26T09:43:25.985Z,30.13
2023-01-26T09:46:00.979Z,28.77
2023-01-26T09:48:34.961Z,30.27
2023-01-26T09:51:19.745Z,27.15
2023-01-26T09:53:56.222Z,27.60
2023-01-26T09:56:29.243Z,27.20
2023-01-26T09:59:01.835Z,26.08
2023-01-26T10:01:44.873Z,28.75
2023-01-26T10:04:29.837Z,29.77
2023-01-26T10:07:01.311Z,26.30
2023-01-26T10:09:51.591Z,25.77
2023-01-26T10:12:23.788Z,23.17
2023-01-26T10:15:04.044Z,24.38
2023-01-26T10:20:10.657Z,26.48
2023-01-26T10:22:47.471Z,24.23
2023-01-26T10:25:19.209Z,24.23
2023-01-26T10:27:50.848Z,24.75
2023-01-26T10:30:22.839Z,23.58
2023-01-26T10:33:11.584Z,19.88
2023-01-26T10:35:42.221Z,19.15
2023-01-26T10:38:29.755Z,21.95
2023-01-26T10:41:01.039Z,19.73
2023-01-26T10:43:37.979Z,19.92
2023-01-26T10:46:26.215Z,19.73
2023-01-26T10:48:56.802Z,15.60
2023-01-26T10:51:27.880Z,18.00
2023-01-26T10:54:14.757Z,18.77
2023-01-26T10:56:48.006Z,18.88
2023-01-26T10:59:24.061Z,17.95
2023-01-26T11:01:57.168Z,16.38
2023-01-26T11:04:26.206Z,18.13
2023-01-26T11:06:56.097Z,17.85
2023-01-26T11:09:31.513Z,16.50
2023-01-26T11:12:04.715Z,14.02
2023-01-26T11:14:35.950Z,15.73
2023-01-26T11:17:23.693Z,16.40
2023-01-26T11:20:01.718Z,28.70
2023-01-26T11:22:53.513Z,22.23
2023-01-26T11:25:28.690Z,20.67
2023-01-26T11:28:26.168Z,17.08
2023-01-26T11:31:08.419Z,15.95
2023-01-26T11:33:36.499Z,15.90
2023-01-26T11:36:10.597Z,16.38
2023-01-26T11:38:42.628Z,14.35
2023-01-26T11:41:13.827Z,14.77
2023-01-26T11:43:42.059Z,15.65
2023-01-26T11:46:22.938Z,14.90
2023-01-26T11:49:01.724Z,15.50
2023-01-26T11:51:49.647Z,15.48
2023-01-26T11:54:29.348Z,15.23
2023-01-26T11:57:04.535Z,15.38
2023-01-26T11:59:36.840Z,13.20
2023-01-26T12:02:20.340Z,14.27
2023-01-26T12:04:49.000Z,14.25
2023-01-26T12:07:22.193Z,14.20
2023-01-26T12:09:53.249Z,13.63
2023-01-26T12:12:43.165Z,14.02
2023-01-26T12:15:14.407Z,15.00
2023-01-26T12:17:43.242Z,13.63
2023-01-26T12:20:41.106Z,14.13
2023-01-26T12:23:09.298Z,13.10
2023-01-26T12:25:39.004Z,13.05
2023-01-26T12:28:16.529Z,14.77
2023-01-26T12:30:52.761Z,15.68
2023-01-26T12:33:21.964Z,15.27
2023-01-26T12:35:52.948Z,14.27
2023-01-26T12:38:38.010Z,14.63
2023-01-26T12:41:09.088Z,15.05
2023-01-26T12:43:49.253Z,15.20
2023-01-26T12:46:18.003Z,24.38
2023-01-26T12:49:05.055Z,19.15
2023-01-26T12:51:43.253Z,16.10
2023-01-26T12:54:27.463Z,13.95
2023-01-26T13:05:54.969Z,13.63
2023-01-26T13:08:51.382Z,15.70
2023-01-26T13:11:39.502Z,15.35
2023-01-26T13:14:25.184Z,15.07
2023-01-26T13:16:56.643Z,14.75
2023-01-26T13:19:43.466Z,15.32
2023-01-26T13:22:20.639Z,14.70
2023-01-26T13:25:01.302Z,14.05
2023-01-26T13:27:33.386Z,14.45
2023-01-26T13:30:04.664Z,15.80
2023-01-26T13:32:37.889Z,16.65
2023-01-26T13:35:11.555Z,17.15
2023-01-26T13:37:46.170Z,19.63
2023-01-26T13:40:19.458Z,26.27
2023-01-26T13:42:52.818Z,19.30
2023-01-26T13:45:30.483Z,22.17
2023-01-26T13:47:59.319Z,18.35
2023-01-26T13:50:38.783Z,17.48
2023-01-26T13:53:28.453Z,16.92
2023-01-26T13:55:59.750Z,18.35
2023-01-26T13:58:35.063Z,19.17
2023-01-26T14:01:08.051Z,19.30
2023-01-26T14:03:40.384Z,20.10
2023-01-26T14:06:19.956Z,20.48
2023-01-26T14:08:52.069Z,21.02
2023-01-26T14:11:24.371Z,21.00
2023-01-26T14:13:56.030Z,21.17
2023-01-26T14:16:32.261Z,20.27
2023-01-26T14:19:18.336Z,22.77
2023-01-26T14:21:52.585Z,20.88
2023-01-26T14:24:31.110Z,22.88
2023-01-26T14:27:02.953Z,23.13
2023-01-26T14:29:37.854Z,22.48
2023-01-26T14:32:06.434Z,22.13
2023-01-26T14:34:35.624Z,23.63
2023-01-26T14:37:05.917Z,23.70
2023-01-26T14:39:35.015Z,26.05
2023-01-26T14:42:04.387Z,23.98
2023-01-26T14:44:34.117Z,24.63
2023-01-26T14:47:07.164Z,23.50
2023-01-26T14:49:48.158Z,23.15
2023-01-26T14:52:23.940Z,24.60
2023-01-26T14:54:54.368Z,23.85
2023-01-26T14:57:24.691Z,25.70
2023-01-26T14:59:57.963Z,24.42
2023-01-26T15:02:28.496Z,25.38
2023-01-26T15:05:02.437Z,26.60
2023-01-26T15:07:38.979Z,25.02
2023-01-26T15:10:25.772Z,24.85
2023-01-26T15:13:17.287Z,26.02
2023-01-26T15:15:48.989Z,24.80
2023-01-26T15:18:21.465Z,25.85
2023-01-26T15:21:00.329Z,24.45
2023-01-26T15:23:31.204Z,22.42
2023-01-26T15:26:06.293Z,24.33
2023-01-26T15:28:35.818Z,24.25
2023-01-26T15:31:04.760Z,25.15
2023-01-26T15:33:48.014Z,25.73
2023-01-26T15:36:25.633Z,23.83
2023-01-26T15:38:59.311Z,24.00
2023-01-26T15:41:28.736Z,26.00
2023-01-26T15:43:59.601Z,23.77
2023-01-26T15:46:28.046Z,26.90
2023-01-26T15:48:56.859Z,27.50
2023-01-26T15:51:27.742Z,25.02
2023-01-26T15:53:58.952Z,26.30
2023-01-26T15:56:29.923Z,26.63
2023-01-26T15:59:02.837Z,24.85
2023-01-26T16:01:32.273Z,24.45
2023-01-26T16:04:01.643Z,23.00
2023-01-26T16:06:33.399Z,26.08
2023-01-26T16:09:08.026Z,24.20
2023-01-26T16:11:42.445Z,25.73
2023-01-26T16:14:18.860Z,23.30
2023-01-26T16:16:49.945Z,24.75
2023-01-26T16:19:33.736Z,24.27
2023-01-26T16:22:06.643Z,20.45
2023-01-26T16:24:36.789Z,25.20
2023-01-26T16:27:06.282Z,24.17
2023-01-26T16:29:35.633Z,20.83
2023-01-26T16:32:10.134Z,21.02
2023-01-26T16:34:39.316Z,22.58
2023-01-26T16:37:12.908Z,23.98
2023-01-26T16:39:42.525Z,21.90
2023-01-26T16:42:14.636Z,20.63
2023-01-26T16:47:15.511Z,19.77
2023-01-26T16:49:47.958Z,22.35
2023-01-26T16:52:17.127Z,23.70
2023-01-26T16:54:48.616Z,22.25
2023-01-26T16:57:19.629Z,23.20
2023-01-26T16:59:48.929Z,22.30
2023-01-26T17:02:24.227Z,21.88
2023-01-26T17:04:55.498Z,22.67
2023-01-26T17:07:24.944Z,20.50
2023-01-26T17:09:53.511Z,21.75
2023-01-26T17:12:22.002Z,22.20
2023-01-26T17:14:50.587Z,22.95
2023-01-26T17:17:22.045Z,26.27
2023-01-26T17:19:57.122Z,23.83
2023-01-26T17:22:38.801Z,24.27
2023-01-26T17:25:09.732Z,27.05
2023-01-26T17:27:44.414Z,24.50
2023-01-26T17:30:13.371Z,25.33
2023-01-26T17:32:51.927Z,26.20
2023-01-26T17:35:23.013Z,29.35
2023-01-26T17:37:52.144Z,32.65
2023-01-26T17:40:25.401Z,36.30
2023-01-26T17:42:56.754Z,29.42
2023-01-26T17:45:30.381Z,26.73
2023-01-26T17:48:02.209Z,28.20
2023-01-26T17:50:34.618Z,26.77
2023-01-26T17:53:06.778Z,24.60
2023-01-26T17:55:36.861Z,23.15
2023-01-26T17:58:10.593Z,23.15
2023-01-26T18:00:45.596Z,20.40
2023-01-26T18:03:35.313Z,22.15
2023-01-26T18:06:05.104Z,26.08
2023-01-26T18:08:37.681Z,27.63
2023-01-26T18:11:07.407Z,23.05
2023-01-26T18:13:36.400Z,23.48
2023-01-26T18:16:08.885Z,25.77
2023-01-26T18:21:16.870Z,21.05
2023-01-26T18:23:47.974Z,20.75
2023-01-26T18:26:18.362Z,22.65
2023-01-26T18:28:50.740Z,21.75
2023-01-26T18:31:24.500Z,25.00
2023-01-26T18:33:54.405Z,24.23
2023-01-26T18:36:23.087Z,27.13
2023-01-26T18:38:55.593Z,25.55
2023-01-26T18:41:25.111Z,24.85
2023-01-26T18:43:57.834Z,23.60
2023-01-26T18:46:27.890Z,22.27
2023-01-26T18:49:00.475Z,25.77
2023-01-26T18:51:36.606Z,23.38
2023-01-26T18:54:05.808Z,22.77
2023-01-26T18:56:37.988Z,23.13
2023-01-26T18:59:10.441Z,21.00
2023-01-26T19:01:40.476Z,22.70
2023-01-26T19:04:10.496Z,24.90
2023-01-26T19:06:44.427Z,21.40
2023-01-26T19:09:15.956Z,21.63
2023-01-26T19:11:44.341Z,21.65
2023-01-26T19:14:13.608Z,22.98
2023-01-26T19:16:43.932Z,21.05
2023-01-26T19:19:12.877Z,20.67
2023-01-26T19:21:41.754Z,23.70
2023-01-26T19:24:16.100Z,23.95
2023-01-26T19:26:46.587Z,23.15
2023-01-26T19:29:17.182Z,22.40
2023-01-26T19:31:45.829Z,21.23
2023-01-26T19:34:16.983Z,22.25
2023-01-26T19:36:48.078Z,20.65
2023-01-26T19:39:19.053Z,20.42
2023-01-26T19:41:47.922Z,20.45
2023-01-26T19:44:16.816Z,20.80
2023-01-26T19:46:45.459Z,21.27
2023-01-26T19:49:15.086Z,21.27
2023-01-26T19:51:46.546Z,16.60
2023-01-26T19:54:15.365Z,21.83
2023-01-26T19:56:47.662Z,22.73
2023-01-26T19:59:17.699Z,22.65
2023-01-26T20:01:47.011Z,23.35
2023-01-26T20:04:19.774Z,21.35
2023-01-26T20:06:50.125Z,23.50
2023-01-26T20:09:18.545Z,24.40
2023-01-26T20:11:50.032Z,21.30
2023-01-26T20:14:22.108Z,21.70
2023-01-26T20:16:50.899Z,21.70
2023-01-26T20:19:20.472Z,21.00
2023-01-26T20:21:50.022Z,21.23
2023-01-26T20:24:19.170Z,20.38
2023-01-26T20:26:48.055Z,19.05
2023-01-26T20:29:18.473Z,17.45
2023-01-26T20:31:49.779Z,17.20
2023-01-26T20:34:23.299Z,17.13
2023-01-26T20:36:56.331Z,17.75
2023-01-26T20:39:25.349Z,13.65
2023-01-26T20:41:56.348Z,16.63
2023-01-26T20:44:25.974Z,19.00
2023-01-26T20:47:00.418Z,16.98
2023-01-26T20:49:34.554Z,16.13
2023-01-26T20:52:06.024Z,14.75
2023-01-26T20:57:05.806Z,12.65
2023-01-26T20:59:37.001Z,12.35
2023-01-26T21:02:06.599Z,11.20
2023-01-26T21:04:38.091Z,11.63
2023-01-26T21:07:09.716Z,10.55
2023-01-26T21:09:38.169Z,9.73
2023-01-26T21:12:07.236Z,9.00
2023-01-26T21:14:39.478Z,10.68
2023-01-26T21:17:08.648Z,9.18
2023-01-26T21:19:38.816Z,8.65
2023-01-26T21:22:07.124Z,9.02
2023-01-26T21:24:37.608Z,8.80
2023-01-26T21:27:07.160Z,7.85
2023-01-26T21:29:40.307Z,7.50
2023-01-26T21:32:09.070Z,7.88
2023-01-26T21:34:40.093Z,7.22
2023-01-26T21:37:08.500Z,7.53
2023-01-26T21:39:39.760Z,5.43
2023-01-26T21:42:08.942Z,5.50
2023-01-26T21:45:12.209Z,6.25
2023-01-26T21:48:05.550Z,5.32
2023-01-26T21:50:48.033Z,6.13
2023-01-26T21:53:18.973Z,4.63
2023-01-26T21:55:48.000Z,5.32
2023-01-26T21:58:34.148Z,5.30
2023-01-26T22:01:09.566Z,4.95
2023-01-26T22:04:00.200Z,5.05
2023-01-26T22:06:29.805Z,5.20
2023-01-26T22:09:01.151Z,5.47
2023-01-26T22:11:34.733Z,5.47
2023-01-26T22:14:03.304Z,4.85
2023-01-26T22:16:32.692Z,4.65
2023-01-26T22:19:02.297Z,4.72
2023-01-26T22:21:36.025Z,4.97
2023-01-26T22:24:08.788Z,5.15
2023-01-26T22:26:39.800Z,5.15
2023-01-26T22:29:09.314Z,5.40
2023-01-26T22:31:38.231Z,6.22
2023-01-26T22:36:41.335Z,4.10
2023-01-26T22:39:12.568Z,4.93
2023-01-26T22:41:44.108Z,5.07
2023-01-26T22:44:12.780Z,5.07
2023-01-26T22:46:41.537Z,4.68
2023-01-26T22:49:10.984Z,5.00
2023-01-26T22:51:41.299Z,4.57
2023-01-26T22:54:17.777Z,4.65
2023-01-26T22:56:46.262Z,3.83
2023-01-26T22:59:14.796Z,5.53
2023-01-26T23:01:43.392Z,4.55
2023-01-26T23:04:12.249Z,4.82
2023-01-26T23:06:41.833Z,4.65
2023-01-26T23:09:10.613Z,5.20
2023-01-26T23:11:42.517Z,5.50
2023-01-26T23:14:11.389Z,5.00
2023-01-26T23:16:41.554Z,3.88
2023-01-26T23:19:10.028Z,4.35
2023-01-26T23:21:41.571Z,4.57
2023-01-26T23:24:12.497Z,3.92
2023-01-26T23:26:42.418Z,4.13
2023-01-26T23:29:13.359Z,4.03
2023-01-26T23:31:43.984Z,4.35
2023-01-26T23:34:12.737Z,3.95
2023-01-26T23:36:43.455Z,4.45
2023-01-26T23:39:12.891Z,4.32
2023-01-26T23:41:46.907Z,4.47
2023-01-26T23:44:16.861Z,4.78
2023-01-26T23:46:51.869Z,5.07
2023-01-26T23:49:22.597Z,4.93
2023-01-26T23:51:50.978Z,5.20
2023-01-26T23:54:21.911Z,5.35
2023-01-26T23:56:52.317Z,6.03
2023-01-26T23:59:26.985Z,4.90
